Time;durP1;ratioP1;P1;durP2;ratioP2;P2;SDS_P1;SDS_P2;PMS_P1;PMS_P2;Temp;Humidity;BMP_temperature;BMP_pressure;BME280_temperature;BME280_humidity;BME280_pressure;Samples;Min_cycle;Max_cycle;Signal;HPM_P1;HPM_P2
2021/12/07 00:00:22;;;;;;;0.90;0.80;;;18.90;46.80;;;;;;4857545;29;20120;-63
2021/12/07 00:02:49;;;;;;;0.90;0.70;;;18.80;46.70;;;;;;4853822;29;20485;-63
2021/12/07 00:05:15;;;;;;;1.45;0.82;;;18.90;46.80;;;;;;4859205;29;20517;-64
2021/12/07 00:07:43;;;;;;;1.73;0.77;;;18.80;46.70;;;;;;4860835;29;20397;-64
2021/12/07 00:10:13;;;;;;;2.28;0.80;;;18.80;46.70;;;;;;4844179;29;20022;-64
2021/12/07 00:12:41;;;;;;;1.17;1.00;;;18.80;46.70;;;;;;4838943;29;20034;-64
2021/12/07 00:15:09;;;;;;;1.42;0.93;;;18.80;46.70;;;;;;4859338;29;20497;-64
2021/12/07 00:17:35;;;;;;;1.40;0.85;;;18.80;46.70;;;;;;4859191;29;20498;-65
2021/12/07 00:20:06;;;;;;;1.10;0.50;;;18.70;46.60;;;;;;4860986;29;20474;-64
2021/12/07 00:22:32;;;;;;;1.10;0.90;;;18.70;46.60;;;;;;4859699;29;20025;-64
2021/12/07 00:24:57;;;;;;;0.98;0.70;;;18.70;46.60;;;;;;4860575;29;20499;-64
2021/12/07 00:27:23;;;;;;;0.82;0.73;;;18.70;46.60;;;;;;4849806;29;20742;-69
2021/12/07 00:29:49;;;;;;;0.98;0.70;;;18.70;46.60;;;;;;4853602;29;20034;-68
2021/12/07 00:32:26;;;;;;;0.95;0.70;;;18.70;46.50;;;;;;4852292;29;20042;-68
2021/12/07 00:37:30;;;;;;;0.82;0.70;;;18.60;46.50;;;;;;4860224;29;20150;-69
2021/12/07 00:39:57;;;;;;;1.40;0.90;;;18.60;46.40;;;;;;4857563;29;20057;-69
2021/12/07 00:42:23;;;;;;;0.82;0.70;;;18.50;46.50;;;;;;4853200;29;20022;-69
2021/12/07 00:44:49;;;;;;;1.30;0.68;;;18.60;46.40;;;;;;4849048;29;20026;-68
2021/12/07 00:47:15;;;;;;;0.65;0.60;;;18.50;46.30;;;;;;4858072;29;20103;-63
2021/12/07 00:49:42;;;;;;;0.82;0.68;;;18.50;46.30;;;;;;4854148;29;20099;-68
2021/12/07 00:52:08;;;;;;;1.02;0.70;;;18.50;46.30;;;;;;4852542;29;20028;-68
2021/12/07 00:54:34;;;;;;;1.33;0.80;;;18.50;46.30;;;;;;4852577;29;20046;-69
2021/12/07 00:57:02;;;;;;;0.85;0.50;;;18.50;46.30;;;;;;4858901;29;20030;-69
2021/12/07 00:59:29;;;;;;;1.67;0.73;;;18.50;46.30;;;;;;4843979;29;20045;-64
2021/12/07 01:01:55;;;;;;;1.08;0.88;;;18.40;46.20;;;;;;4854107;29;20123;-65
2021/12/07 01:04:24;;;;;;;0.85;0.70;;;18.40;46.20;;;;;;4854721;29;20501;-68
2021/12/07 01:09:27;;;;;;;1.90;0.85;;;18.40;46.20;;;;;;4854742;29;20045;-68
2021/12/07 01:25:40;;;;;;;0.80;0.60;;;18.20;46.10;;;;;;4858898;29;20497;-64
2021/12/07 01:28:22;;;;;;;0.90;0.68;;;18.20;46.20;;;;;;4831168;29;20037;-64
2021/12/07 01:33:46;;;;;;;0.63;0.63;;;18.20;46.10;;;;;;4855583;29;20049;-68
2021/12/07 02:00:02;;;;;;;0.93;0.82;;;18.00;46.00;;;;;;4856195;29;20056;-68
2021/12/07 02:02:29;;;;;;;1.02;0.80;;;18.00;46.00;;;;;;4854306;29;20498;-68
2021/12/07 02:04:56;;;;;;;0.75;0.65;;;18.00;46.00;;;;;;4857973;29;20053;-68
2021/12/07 02:07:23;;;;;;;1.00;0.90;;;18.00;46.00;;;;;;4855169;29;20037;-68
2021/12/07 02:09:54;;;;;;;1.20;0.90;;;18.00;46.00;;;;;;4857273;29;20104;-68
2021/12/07 02:12:21;;;;;;;1.13;0.93;;;18.00;46.00;;;;;;4861378;29;20025;-68
2021/12/07 02:14:47;;;;;;;1.25;0.85;;;18.00;45.90;;;;;;4858095;29;20517;-69
2021/12/07 02:17:16;;;;;;;1.02;0.80;;;18.00;45.90;;;;;;4853483;29;20072;-68
2021/12/07 02:19:42;;;;;;;1.23;0.80;;;17.90;45.90;;;;;;4861005;29;20018;-68
2021/12/07 02:22:10;;;;;;;1.00;0.85;;;17.90;45.90;;;;;;4855436;29;20056;-68
2021/12/07 02:24:35;;;;;;;1.38;0.90;;;17.90;45.90;;;;;;4860994;29;20030;-68
2021/12/07 02:27:02;;;;;;;0.95;0.80;;;17.90;45.90;;;;;;4857083;29;20038;-69
2021/12/07 02:29:28;;;;;;;1.08;0.70;;;17.90;45.90;;;;;;4852557;29;20090;-69
2021/12/07 02:31:54;;;;;;;0.90;0.80;;;17.90;45.90;;;;;;4843616;29;20041;-69
2021/12/07 02:34:22;;;;;;;1.27;0.90;;;17.90;45.90;;;;;;4861303;29;20046;-64
2021/12/07 02:36:50;;;;;;;1.60;0.98;;;17.80;45.80;;;;;;4855925;29;20041;-64
2021/12/07 02:39:16;;;;;;;1.33;0.70;;;17.80;45.80;;;;;;4861767;29;20121;-64
2021/12/07 02:41:42;;;;;;;1.30;0.98;;;17.90;45.90;;;;;;4858881;29;20086;-64
2021/12/07 02:44:09;;;;;;;0.82;0.70;;;17.80;45.80;;;;;;4853115;29;20121;-64
2021/12/07 02:46:37;;;;;;;1.13;0.82;;;17.80;45.80;;;;;;4849595;29;20038;-63
2021/12/07 02:49:04;;;;;;;2.17;0.95;;;17.80;45.90;;;;;;4833735;29;20366;-64
2021/12/07 02:51:30;;;;;;;1.50;0.88;;;17.70;45.80;;;;;;4851213;29;20054;-64
2021/12/07 02:53:56;;;;;;;1.80;1.05;;;17.80;45.90;;;;;;4850977;29;20118;-64
2021/12/07 02:56:23;;;;;;;1.10;1.00;;;17.80;45.80;;;;;;4852777;29;20180;-69
2021/12/07 02:58:49;;;;;;;1.10;1.00;;;17.80;45.80;;;;;;4851518;29;20030;-69
2021/12/07 03:01:22;;;;;;;1.35;0.80;;;17.70;45.80;;;;;;4856673;29;20030;-69
2021/12/07 03:03:59;;;;;;;1.00;0.80;;;17.70;45.80;;;;;;4862583;29;20030;-68
2021/12/07 03:28:08;;;;;;;0.93;0.85;;;17.50;45.90;;;;;;4845978;29;20045;-68
2021/12/07 03:30:34;;;;;;;1.33;0.80;;;17.50;45.90;;;;;;4854903;29;20777;-68
2021/12/07 03:33:02;;;;;;;1.20;0.90;;;17.50;45.90;;;;;;4851734;29;20355;-68
2021/12/07 03:35:29;;;;;;;1.25;1.10;;;17.50;45.90;;;;;;4856374;29;20387;-68
2021/12/07 03:37:54;;;;;;;0.93;0.88;;;17.50;45.90;;;;;;4856147;29;20388;-68
2021/12/07 03:40:20;;;;;;;0.85;0.80;;;17.50;45.90;;;;;;4856223;29;20034;-68
2021/12/07 03:42:46;;;;;;;1.17;0.90;;;17.50;45.90;;;;;;4860566;29;20037;-68
2021/12/07 03:45:12;;;;;;;1.00;0.90;;;17.50;45.90;;;;;;4858957;29;20029;-68
2021/12/07 03:47:38;;;;;;;1.48;0.93;;;17.50;45.90;;;;;;4837352;29;20053;-68
2021/12/07 03:50:05;;;;;;;1.10;1.00;;;17.40;45.90;;;;;;4856078;29;20022;-68
2021/12/07 03:52:31;;;;;;;1.40;1.00;;;17.40;45.80;;;;;;4861621;29;20470;-68
2021/12/07 03:54:57;;;;;;;1.90;1.05;;;17.40;45.90;;;;;;4849753;29;20033;-68
2021/12/07 03:57:22;;;;;;;1.92;1.10;;;17.40;45.90;;;;;;4861107;29;20025;-68
2021/12/07 03:59:48;;;;;;;1.60;1.13;;;17.40;45.90;;;;;;4854669;29;20046;-69
2021/12/07 04:02:14;;;;;;;1.27;1.00;;;17.40;45.90;;;;;;4848630;29;20065;-68
2021/12/07 04:04:40;;;;;;;1.27;1.00;;;17.40;45.90;;;;;;4856598;29;20037;-64
2021/12/07 04:07:05;;;;;;;1.40;1.00;;;17.40;45.90;;;;;;4855372;29;20037;-63
2021/12/07 04:09:32;;;;;;;1.05;0.90;;;17.30;45.80;;;;;;4851920;29;20034;-64
2021/12/07 04:11:58;;;;;;;1.30;0.90;;;17.30;45.80;;;;;;4857693;29;20033;-64
2021/12/07 04:14:24;;;;;;;1.08;0.90;;;17.30;45.90;;;;;;4854755;29;20030;-64
2021/12/07 04:16:50;;;;;;;1.65;1.10;;;17.30;45.90;;;;;;4839350;29;20034;-64
2021/12/07 04:19:15;;;;;;;2.75;1.00;;;17.30;45.90;;;;;;4856254;29;20053;-64
2021/12/07 04:21:41;;;;;;;1.88;1.20;;;17.30;45.90;;;;;;4855586;29;20041;-64
2021/12/07 04:24:07;;;;;;;1.08;0.88;;;17.30;46.00;;;;;;4855724;29;20033;-64
2021/12/07 04:26:34;;;;;;;1.10;1.00;;;17.30;45.90;;;;;;4855199;29;20116;-64
2021/12/07 04:28:59;;;;;;;1.13;0.90;;;17.30;45.90;;;;;;4834973;29;20024;-64
2021/12/07 04:31:25;;;;;;;1.33;0.85;;;17.20;45.90;;;;;;4850519;29;20038;-64
2021/12/07 04:33:51;;;;;;;2.97;1.17;;;17.30;45.90;;;;;;4858562;29;20054;-68
2021/12/07 04:36:17;;;;;;;1.50;0.73;;;17.30;46.00;;;;;;4850037;29;20034;-68
2021/12/07 04:38:43;;;;;;;1.55;1.00;;;17.20;45.90;;;;;;4858232;29;20038;-68
2021/12/07 04:41:10;;;;;;;1.73;1.10;;;17.20;45.90;;;;;;4843566;29;20049;-68
2021/12/07 04:43:38;;;;;;;1.23;1.02;;;17.20;45.90;;;;;;4858400;29;20487;-68
2021/12/07 04:59:27;;;;;;;1.33;0.90;;;17.10;45.90;;;;;;4855016;29;20114;-64
2021/12/07 05:01:53;;;;;;;1.80;0.80;;;17.10;46.00;;;;;;4836388;29;20038;-64
2021/12/07 05:04:24;;;;;;;1.50;1.13;;;17.10;46.00;;;;;;4855325;29;20044;-63
2021/12/07 05:06:54;;;;;;;1.52;1.13;;;17.10;45.90;;;;;;4860599;29;20037;-63
2021/12/07 05:14:28;;;;;;;1.30;0.93;;;17.10;46.00;;;;;;4856340;29;20730;-64
2021/12/07 05:38:32;;;;;;;1.38;0.90;;;16.90;46.00;;;;;;4843353;29;20117;-64
2021/12/07 05:40:58;;;;;;;2.72;1.02;;;16.90;46.00;;;;;;4843160;29;20061;-64
2021/12/07 05:43:23;;;;;;;1.27;0.82;;;16.90;46.00;;;;;;4842558;29;20486;-64
2021/12/07 05:45:49;;;;;;;1.80;0.88;;;16.90;46.00;;;;;;4847416;29;20038;-64
2021/12/07 05:48:15;;;;;;;1.65;0.80;;;16.90;46.00;;;;;;4847749;29;20471;-63
2021/12/07 05:50:42;;;;;;;1.17;0.93;;;16.90;45.90;;;;;;4826859;29;20034;-64
2021/12/07 05:53:11;;;;;;;1.88;0.88;;;17.00;46.00;;;;;;4843116;29;20034;-64
2021/12/07 05:55:37;;;;;;;2.25;1.00;;;16.90;45.90;;;;;;4843280;29;20555;-64
2021/12/07 05:58:04;;;;;;;2.00;0.93;;;16.90;45.90;;;;;;4841643;29;20096;-63
2021/12/07 06:00:32;;;;;;;1.27;0.65;;;16.90;45.90;;;;;;4842665;29;20038;-68
2021/12/07 06:03:04;;;;;;;2.50;0.82;;;16.90;45.90;;;;;;4844350;29;20034;-64
2021/12/07 06:05:31;;;;;;;1.58;0.70;;;16.90;45.90;;;;;;4851351;29;20390;-63
2021/12/07 06:07:57;;;;;;;2.25;0.93;;;16.90;45.90;;;;;;4846576;29;20054;-63
2021/12/07 06:10:23;;;;;;;3.25;0.88;;;16.90;45.90;;;;;;4828715;29;20066;-63
2021/12/07 06:12:49;;;;;;;2.20;0.80;;;16.90;45.90;;;;;;4859343;29;20026;-64
2021/12/07 06:15:18;;;;;;;1.70;0.77;;;16.90;45.90;;;;;;4863259;29;20505;-63
2021/12/07 06:17:45;;;;;;;1.40;0.80;;;16.90;45.80;;;;;;4851529;29;20046;-64
2021/12/07 06:20:11;;;;;;;2.17;0.85;;;16.90;45.90;;;;;;4854143;29;20041;-64
2021/12/07 06:22:36;;;;;;;1.13;0.80;;;16.90;45.80;;;;;;4859119;29;20034;-64
2021/12/07 06:25:04;;;;;;;1.70;0.70;;;16.90;45.80;;;;;;4859065;29;20041;-64
2021/12/07 06:27:30;;;;;;;1.48;0.95;;;16.90;45.80;;;;;;4856977;29;20426;-63
2021/12/07 06:29:57;;;;;;;1.83;0.77;;;16.90;45.80;;;;;;4852201;29;20034;-63
2021/12/07 06:32:23;;;;;;;1.10;0.70;;;16.90;45.80;;;;;;4842990;29;20093;-63
2021/12/07 06:34:49;;;;;;;3.05;0.70;;;16.90;45.80;;;;;;4857071;29;20042;-63
2021/12/07 06:37:15;;;;;;;1.38;0.75;;;16.90;45.80;;;;;;4860256;29;20026;-64
2021/12/07 06:39:41;;;;;;;2.25;0.90;;;16.80;45.70;;;;;;4854889;29;20049;-63
2021/12/07 06:42:06;;;;;;;1.38;0.60;;;16.90;45.80;;;;;;4858833;29;20029;-63
2021/12/07 06:44:32;;;;;;;0.80;0.60;;;16.80;45.70;;;;;;4862206;29;20089;-63
2021/12/07 06:46:58;;;;;;;1.48;1.00;;;16.80;45.70;;;;;;4861936;29;20034;-63
2021/12/07 06:49:24;;;;;;;2.22;0.82;;;16.90;45.70;;;;;;4837608;29;20513;-68
2021/12/07 06:51:51;;;;;;;3.15;0.80;;;16.90;45.70;;;;;;4845686;29;20049;-68
2021/12/07 06:54:17;;;;;;;1.10;0.70;;;16.80;45.60;;;;;;4844169;29;20034;-64
2021/12/07 06:56:43;;;;;;;2.10;0.85;;;16.80;45.70;;;;;;4843061;29;20042;-63
2021/12/07 06:59:08;;;;;;;2.20;0.93;;;16.90;45.70;;;;;;4861794;29;20070;-68
2021/12/07 07:01:34;;;;;;;2.25;0.70;;;16.90;45.60;;;;;;4859987;29;20073;-68
2021/12/07 07:04:00;;;;;;;2.25;0.70;;;16.90;45.60;;;;;;4862692;29;20494;-68
2021/12/07 07:06:27;;;;;;;2.33;0.80;;;16.90;45.60;;;;;;4861078;29;20038;-68
2021/12/07 07:08:53;;;;;;;1.08;0.70;;;16.90;45.50;;;;;;4843948;29;20026;-68
2021/12/07 07:11:20;;;;;;;2.45;0.77;;;16.90;45.50;;;;;;4856432;29;20478;-68
2021/12/07 07:13:47;;;;;;;2.15;0.90;;;16.90;45.50;;;;;;4853552;29;20117;-64
2021/12/07 07:16:13;;;;;;;2.42;0.80;;;16.90;45.50;;;;;;4843139;29;20124;-64
2021/12/07 07:18:40;;;;;;;1.70;0.60;;;16.90;45.60;;;;;;4860848;29;20056;-63
2021/12/07 07:21:07;;;;;;;1.75;0.80;;;16.90;45.50;;;;;;4859820;29;20044;-64
2021/12/07 07:23:33;;;;;;;2.47;1.00;;;16.90;45.50;;;;;;4854062;29;20082;-64
2021/12/07 07:25:59;;;;;;;1.52;0.73;;;16.90;45.40;;;;;;4851326;29;20045;-68
2021/12/07 07:28:27;;;;;;;3.28;0.90;;;16.90;45.40;;;;;;4861519;29;20025;-68
2021/12/07 07:30:53;;;;;;;1.92;0.60;;;16.90;45.40;;;;;;4858127;29;20026;-68
2021/12/07 07:33:19;;;;;;;1.48;0.55;;;16.90;45.40;;;;;;4861282;29;20033;-68
2021/12/07 07:35:45;;;;;;;1.98;0.60;;;16.90;45.40;;;;;;4854847;29;20367;-63
2021/12/07 07:38:11;;;;;;;1.90;0.80;;;17.00;45.40;;;;;;4851876;29;20042;-64
2021/12/07 07:40:36;;;;;;;1.25;0.57;;;17.00;45.30;;;;;;4858149;29;20041;-63
2021/12/07 07:43:03;;;;;;;2.70;1.30;;;17.00;45.30;;;;;;4860950;29;20516;-66
2021/12/07 07:45:29;;;;;;;7.43;2.25;;;17.00;45.20;;;;;;4858649;29;20029;-64
2021/12/07 07:47:55;;;;;;;3.67;1.92;;;16.60;43.60;;;;;;4861017;29;20117;-64
2021/12/07 07:50:21;;;;;;;6.03;2.42;;;16.20;44.10;;;;;;4857629;29;20465;-64
2021/12/07 07:52:47;;;;;;;9.13;2.38;;;15.90;44.40;;;;;;4852155;29;20047;-65
2021/12/07 07:55:13;;;;;;;6.55;1.83;;;15.60;44.70;;;;;;4853945;29;20409;-63
2021/12/07 07:57:40;;;;;;;4.53;2.10;;;15.30;44.90;;;;;;4860820;29;20025;-62
2021/12/07 08:00:10;;;;;;;6.85;2.33;;;15.10;46.60;;;;;;4856755;29;20025;-64
2021/12/07 08:02:36;;;;;;;6.43;1.90;;;15.10;45.90;;;;;;4844995;29;20026;-63
2021/12/07 08:05:03;;;;;;;7.38;2.20;;;15.00;45.90;;;;;;4855326;29;20482;-64
2021/12/07 08:07:29;;;;;;;8.25;2.50;;;14.90;46.10;;;;;;4842894;29;20034;-65
2021/12/07 08:09:54;;;;;;;6.55;1.90;;;14.90;46.00;;;;;;4855133;29;20029;-63
2021/12/07 08:12:20;;;;;;;10.35;2.42;;;15.00;46.40;;;;;;4851166;29;20029;-63
2021/12/07 08:14:46;;;;;;;7.25;2.42;;;15.20;46.00;;;;;;4859222;29;20042;-63
2021/12/07 08:17:11;;;;;;;8.05;2.47;;;15.40;45.10;;;;;;4861049;29;20033;-64
2021/12/07 08:19:37;;;;;;;6.85;2.35;;;15.60;44.70;;;;;;4858235;29;20119;-63
2021/12/07 08:22:03;;;;;;;6.60;2.20;;;15.60;44.20;;;;;;4849560;29;20040;-63
2021/12/07 08:24:29;;;;;;;6.57;2.05;;;15.60;44.50;;;;;;4855156;29;20078;-65
2021/12/07 08:26:55;;;;;;;6.03;1.75;;;15.70;45.20;;;;;;4852758;29;20030;-65
2021/12/07 08:29:21;;;;;;;5.47;1.45;;;15.90;45.70;;;;;;4848294;29;20036;-65
2021/12/07 08:31:46;;;;;;;4.43;1.70;;;16.10;45.90;;;;;;4852021;29;20394;-65
2021/12/07 08:34:12;;;;;;;4.25;1.50;;;16.30;45.80;;;;;;4859642;29;20393;-65
2021/12/07 08:36:38;;;;;;;4.55;1.40;;;16.50;45.70;;;;;;4861665;29;20036;-60
2021/12/07 08:39:05;;;;;;;3.78;1.20;;;16.70;45.60;;;;;;4860757;29;20034;-61
2021/12/07 08:41:31;;;;;;;6.10;1.48;;;16.90;45.40;;;;;;4861046;29;20104;-65
2021/12/07 08:43:57;;;;;;;4.53;1.38;;;17.00;45.20;;;;;;4855499;29;20113;-65
2021/12/07 08:46:23;;;;;;;4.60;1.38;;;17.30;45.00;;;;;;4861369;29;20160;-65
2021/12/07 08:48:49;;;;;;;6.57;1.70;;;17.40;44.70;;;;;;4860535;29;20029;-60
2021/12/07 08:51:15;;;;;;;4.78;1.27;;;17.50;44.40;;;;;;4858046;29;20030;-61
2021/12/07 08:53:50;;;;;;;3.72;1.23;;;17.70;44.20;;;;;;4855094;29;20044;-65
2021/12/07 09:01:44;;;;;;;4.93;1.23;;;18.10;43.60;;;;;;4856023;29;20093;-65
2021/12/07 09:04:13;;;;;;;3.47;1.40;;;18.30;43.50;;;;;;4854371;29;20117;-61
2021/12/07 09:06:38;;;;;;;3.58;1.30;;;18.30;43.00;;;;;;4860318;29;20033;-61
2021/12/07 09:09:04;;;;;;;4.88;1.45;;;18.50;42.80;;;;;;4853819;29;20046;-65
2021/12/07 09:11:30;;;;;;;5.25;1.90;;;18.50;42.50;;;;;;4856644;29;20041;-65
2021/12/07 09:13:56;;;;;;;4.22;1.60;;;18.70;42.30;;;;;;4854651;29;20759;-67
2021/12/07 09:16:22;;;;;;;3.38;1.20;;;18.70;42.00;;;;;;4856960;29;20044;-60
2021/12/07 09:18:49;;;;;;;5.78;1.77;;;18.80;42.50;;;;;;4848896;29;20057;-67
2021/12/07 09:21:16;;;;;;;4.97;1.60;;;18.90;42.00;;;;;;4849070;29;20113;-61
2021/12/07 09:23:42;;;;;;;8.35;2.15;;;18.90;41.60;;;;;;4854257;29;20046;-65
2021/12/07 09:26:09;;;;;;;6.57;1.52;;;19.00;41.30;;;;;;4853948;29;20546;-65
2021/12/07 09:28:35;;;;;;;8.48;1.50;;;19.10;41.20;;;;;;4852906;29;20026;-65
2021/12/07 09:31:01;;;;;;;6.50;1.88;;;19.10;41.20;;;;;;4855803;29;20410;-61
2021/12/07 09:33:30;;;;;;;6.07;1.40;;;19.20;41.10;;;;;;4854208;29;20038;-65
2021/12/07 09:35:56;;;;;;;5.72;1.40;;;19.30;41.10;;;;;;4856170;29;20026;-65
2021/12/07 09:38:23;;;;;;;4.93;1.33;;;19.40;41.00;;;;;;4854001;29;20424;-63
2021/12/07 09:40:49;;;;;;;5.40;1.40;;;19.50;40.90;;;;;;4857416;29;20033;-62
2021/12/07 09:43:15;;;;;;;6.10;1.42;;;19.60;40.80;;;;;;4856959;29;20352;-61
2021/12/07 09:45:42;;;;;;;3.67;1.13;;;19.60;40.60;;;;;;4859964;29;20032;-60
2021/12/07 09:48:10;;;;;;;4.05;1.50;;;19.70;40.50;;;;;;4857711;29;20079;-65
2021/12/07 09:50:42;;;;;;;3.53;1.25;;;19.70;40.20;;;;;;4856276;29;20034;-62
2021/12/07 09:53:11;;;;;;;6.97;2.05;;;19.80;40.00;;;;;;4848990;29;20417;-60
2021/12/07 09:55:38;;;;;;;4.10;1.50;;;19.80;39.60;;;;;;4848514;29;20037;-64
2021/12/07 09:58:04;;;;;;;3.35;1.50;;;19.80;39.50;;;;;;4850435;29;20104;-64
2021/12/07 10:00:31;;;;;;;5.70;1.33;;;19.90;39.60;;;;;;4850978;29;20094;-64
2021/12/07 10:02:57;;;;;;;4.70;1.27;;;19.90;39.60;;;;;;4856321;29;20029;-65
2021/12/07 10:05:25;;;;;;;3.22;0.80;;;20.00;39.50;;;;;;4843127;29;20040;-64
2021/12/07 10:07:51;;;;;;;3.97;1.35;;;20.10;39.50;;;;;;4853457;29;20030;-64
2021/12/07 10:10:23;;;;;;;3.97;1.10;;;20.10;39.50;;;;;;4851523;29;20026;-64
2021/12/07 10:12:49;;;;;;;2.20;1.20;;;20.20;39.40;;;;;;4852603;29;20026;-64
2021/12/07 10:15:15;;;;;;;2.67;0.90;;;20.20;39.40;;;;;;4850702;29;20024;-64
2021/12/07 10:17:42;;;;;;;1.90;0.90;;;20.30;39.50;;;;;;4850141;29;20045;-64
2021/12/07 10:20:40;;;;;;;3.28;0.80;;;20.40;39.40;;;;;;4847325;29;20026;-60
2021/12/07 10:23:18;;;;;;;3.53;1.00;;;20.50;39.30;;;;;;4846688;29;20030;-60
2021/12/07 10:25:54;;;;;;;1.83;0.80;;;20.50;39.40;;;;;;4850089;29;20109;-60
2021/12/07 10:28:46;;;;;;;2.90;1.10;;;20.50;39.40;;;;;;4857351;29;20379;-60
2021/12/07 10:31:17;;;;;;;2.33;1.00;;;20.60;39.30;;;;;;4833162;29;20042;-60
2021/12/07 10:33:52;;;;;;;2.25;0.93;;;20.60;39.40;;;;;;4845448;29;20030;-60
2021/12/07 10:36:21;;;;;;;2.72;1.10;;;20.60;39.30;;;;;;4845662;29;20070;-60
2021/12/07 10:38:55;;;;;;;3.15;0.93;;;20.70;39.40;;;;;;4846432;29;20034;-60
2021/12/07 10:41:23;;;;;;;2.75;0.93;;;20.70;39.40;;;;;;4845544;29;20030;-59
2021/12/07 10:44:02;;;;;;;1.40;0.68;;;20.70;39.30;;;;;;4846980;29;20515;-61
2021/12/07 10:46:42;;;;;;;2.22;1.00;;;20.70;39.30;;;;;;4845769;29;20060;-60
2021/12/07 10:49:20;;;;;;;3.17;0.90;;;20.70;39.20;;;;;;4856692;29;20544;-59
2021/12/07 10:52:16;;;;;;;2.72;0.90;;;20.80;40.30;;;;;;4856928;29;20026;-61
2021/12/07 10:54:52;;;;;;;1.98;0.60;;;20.80;39.30;;;;;;4846179;29;20036;-60
2021/12/07 10:57:24;;;;;;;4.55;1.08;;;20.80;39.40;;;;;;4850257;29;20104;-59
2021/12/07 11:00:11;;;;;;;2.63;0.85;;;20.80;39.40;;;;;;4850775;29;20034;-59
2021/12/07 11:02:39;;;;;;;3.40;0.93;;;20.80;40.30;;;;;;4845273;29;20386;-59
2021/12/07 11:05:13;;;;;;;3.50;1.17;;;20.80;39.50;;;;;;4849417;29;20025;-59
2021/12/07 11:07:39;;;;;;;1.50;1.05;;;20.80;39.50;;;;;;4852066;29;20064;-59
2021/12/07 11:10:10;;;;;;;3.08;0.80;;;20.80;39.60;;;;;;4846465;29;20439;-59
2021/12/07 11:12:49;;;;;;;2.42;0.90;;;20.80;39.50;;;;;;4848009;29;20075;-60
2021/12/07 11:15:23;;;;;;;3.50;1.00;;;20.80;39.70;;;;;;4854505;29;20486;-60
2021/12/07 11:17:53;;;;;;;2.17;1.02;;;20.80;39.60;;;;;;4849832;29;20041;-61
2021/12/07 11:20:19;;;;;;;2.60;0.95;;;20.80;39.60;;;;;;4847431;29;20026;-64
2021/12/07 11:22:56;;;;;;;3.05;0.98;;;20.80;39.50;;;;;;4851908;29;20037;-64
2021/12/07 11:29:39;;;;;;;2.70;1.02;;;20.80;39.40;;;;;;4853326;29;20026;-65
2021/12/07 11:31:38;;;;;;;3.53;1.20;;;20.80;39.80;;;;;;4818305;29;20066;-65
2021/12/07 11:34:29;;;;;;;3.35;0.90;;;20.70;39.70;;;;;;4844431;29;20524;-66
2021/12/07 11:37:01;;;;;;;3.58;1.05;;;20.80;39.70;;;;;;4844967;29;20483;-65
2021/12/07 11:39:31;;;;;;;3.83;1.35;;;20.80;40.00;;;;;;4858298;29;20025;-60
2021/12/07 11:42:13;;;;;;;2.78;1.05;;;20.80;40.30;;;;;;4866401;29;20068;-61
2021/12/07 11:45:07;;;;;;;2.15;1.20;;;20.70;40.20;;;;;;4846038;29;20380;-65
2021/12/07 11:47:35;;;;;;;4.40;1.10;;;20.70;40.10;;;;;;4846357;29;20029;-64
2021/12/07 11:50:21;;;;;;;2.53;1.08;;;20.70;40.40;;;;;;4849788;29;20116;-65
2021/12/07 11:52:50;;;;;;;2.90;1.30;;;20.70;40.50;;;;;;4845192;29;20112;-61
2021/12/07 11:55:17;;;;;;;2.53;1.00;;;20.70;40.60;;;;;;4828062;29;20089;-60
2021/12/07 11:57:42;;;;;;;2.83;1.15;;;20.70;40.50;;;;;;4843809;29;20030;-60
2021/12/07 12:00:12;;;;;;;3.38;1.20;;;20.70;40.50;;;;;;4843773;29;20037;-60
2021/12/07 12:02:39;;;;;;;3.55;1.10;;;20.70;40.50;;;;;;4843905;29;20026;-60
2021/12/07 12:05:06;;;;;;;3.47;1.33;;;20.70;40.60;;;;;;4847646;29;20036;-61
2021/12/07 12:07:32;;;;;;;4.68;1.17;;;20.70;40.60;;;;;;4851413;29;20506;-61
2021/12/07 12:09:58;;;;;;;2.75;0.90;;;20.70;40.70;;;;;;4855005;29;20026;-60
2021/12/07 12:12:54;;;;;;;3.50;1.00;;;20.70;40.80;;;;;;4846711;29;20033;-61
2021/12/07 12:15:38;;;;;;;3.60;1.17;;;20.80;40.80;;;;;;4846135;29;20105;-60
2021/12/07 12:18:57;;;;;;;2.08;0.95;;;20.70;40.70;;;;;;4844077;29;20045;-61
2021/12/07 12:21:44;;;;;;;4.22;1.83;;;20.80;41.10;;;;;;4796465;29;20380;-61
2021/12/07 12:24:31;;;;;;;3.53;1.50;;;20.70;41.30;;;;;;4859780;29;20381;-61
2021/12/07 12:27:14;;;;;;;5.20;1.77;;;20.70;41.30;;;;;;4859715;29;20018;-62
2021/12/07 12:29:43;;;;;;;6.18;1.85;;;20.70;41.50;;;;;;4848580;29;20036;-61
2021/12/07 12:32:09;;;;;;;3.60;1.45;;;20.70;41.60;;;;;;4857317;29;20026;-60
2021/12/07 12:34:38;;;;;;;5.50;1.73;;;20.60;41.60;;;;;;4851453;29;20101;-66
2021/12/07 12:37:08;;;;;;;3.85;1.60;;;20.60;41.50;;;;;;4858996;29;20100;-66
2021/12/07 12:39:48;;;;;;;4.30;1.92;;;20.60;41.60;;;;;;4860072;29;20038;-66
2021/12/07 12:42:24;;;;;;;8.43;1.95;;;20.60;41.50;;;;;;4856986;29;20063;-66
2021/12/07 12:45:04;;;;;;;6.00;1.98;;;20.60;41.50;;;;;;4852570;29;20064;-64
2021/12/07 12:47:31;;;;;;;3.47;1.50;;;20.60;41.40;;;;;;4854668;29;20025;-64
2021/12/07 12:50:30;;;;;;;3.60;1.67;;;20.60;41.30;;;;;;4849688;29;20407;-64
2021/12/07 12:53:05;;;;;;;4.25;1.65;;;20.60;41.20;;;;;;4843286;29;20040;-64
2021/12/07 12:55:36;;;;;;;6.85;1.83;;;20.60;41.30;;;;;;4843264;29;20025;-64
2021/12/07 12:58:09;;;;;;;4.38;1.55;;;20.60;41.30;;;;;;4847603;29;20049;-64
2021/12/07 13:01:29;;;;;;;6.10;1.65;;;20.60;42.10;;;;;;4842538;29;20069;-64
2021/12/07 13:04:11;;;;;;;5.30;1.70;;;20.60;40.80;;;;;;4760231;30;20086;-64
2021/12/07 13:07:23;;;;;;;6.00;1.98;;;20.50;40.80;;;;;;4846242;29;20088;-64
2021/12/07 13:09:48;;;;;;;5.60;1.73;;;20.60;40.60;;;;;;4843670;29;20041;-64
2021/12/07 13:12:34;;;;;;;6.05;1.70;;;20.50;40.70;;;;;;4845617;29;20505;-64
2021/12/07 13:15:02;;;;;;;5.10;1.73;;;20.50;40.40;;;;;;4847109;29;20098;-64
2021/12/07 13:17:45;;;;;;;4.63;1.70;;;20.50;40.40;;;;;;4849284;29;20034;-64
2021/12/07 13:20:20;;;;;;;5.68;1.92;;;20.50;40.10;;;;;;4847336;29;20158;-64
2021/12/07 13:22:57;;;;;;;3.53;1.42;;;20.50;40.10;;;;;;4848200;29;20369;-64
2021/12/07 13:25:36;;;;;;;4.57;1.23;;;20.50;39.90;;;;;;4847240;29;20022;-64
2021/12/07 13:28:15;;;;;;;4.25;1.70;;;20.50;39.70;;;;;;4852490;29;20025;-64
2021/12/07 13:30:44;;;;;;;3.22;1.55;;;20.50;39.60;;;;;;4862740;29;20090;-64
2021/12/07 13:33:22;;;;;;;4.35;1.67;;;20.50;39.60;;;;;;4850743;29;20041;-64
2021/12/07 13:35:50;;;;;;;4.68;1.58;;;20.50;39.40;;;;;;4851420;29;20398;-64
2021/12/07 13:38:26;;;;;;;5.38;1.73;;;20.40;39.30;;;;;;4844682;29;20034;-64
2021/12/07 13:41:13;;;;;;;5.20;1.52;;;20.50;39.20;;;;;;4849419;29;20037;-65
2021/12/07 13:43:39;;;;;;;3.97;1.63;;;20.50;39.10;;;;;;4846566;29;20032;-64
2021/12/07 13:46:16;;;;;;;7.82;1.92;;;20.40;39.00;;;;;;4846975;29;20033;-64
2021/12/07 13:48:43;;;;;;;4.35;1.50;;;20.40;38.80;;;;;;4831496;29;20045;-64
2021/12/07 13:51:12;;;;;;;5.18;1.60;;;20.40;38.70;;;;;;4848531;29;20026;-65
2021/12/07 13:53:40;;;;;;;6.43;1.50;;;20.40;38.60;;;;;;4847493;29;20030;-65
2021/12/07 13:56:07;;;;;;;4.10;1.50;;;20.40;38.50;;;;;;4846621;29;20054;-66
2021/12/07 13:59:12;;;;;;;6.68;1.88;;;20.40;38.50;;;;;;4846659;29;20045;-65
2021/12/07 14:01:40;;;;;;;7.78;1.65;;;20.40;38.30;;;;;;4820807;29;20034;-65
2021/12/07 14:04:07;;;;;;;4.70;1.42;;;20.30;38.30;;;;;;4849182;29;20192;-65
2021/12/07 14:06:34;;;;;;;4.68;1.70;;;20.30;39.20;;;;;;4858776;29;20029;-65
2021/12/07 14:09:04;;;;;;;3.72;1.20;;;20.30;38.10;;;;;;4846448;29;20113;-65
2021/12/07 14:11:30;;;;;;;6.47;1.83;;;20.30;38.00;;;;;;4851849;29;20034;-66
2021/12/07 14:13:55;;;;;;;5.47;1.40;;;20.30;38.10;;;;;;4847010;29;20038;-65
2021/12/07 14:16:26;;;;;;;4.57;1.20;;;20.30;38.10;;;;;;4851986;29;20045;-65
2021/12/07 14:18:52;;;;;;;4.13;1.35;;;20.30;38.00;;;;;;4848182;29;20050;-66
2021/12/07 14:21:18;;;;;;;3.58;1.35;;;20.30;38.00;;;;;;4834935;29;20402;-66
2021/12/07 14:23:47;;;;;;;3.78;1.42;;;20.20;38.00;;;;;;4846570;29;20026;-66
2021/12/07 14:26:16;;;;;;;4.88;1.35;;;20.20;37.90;;;;;;4849005;29;20037;-66
2021/12/07 14:28:45;;;;;;;4.82;1.70;;;20.20;37.90;;;;;;4851786;29;20029;-66
2021/12/07 14:31:27;;;;;;;3.10;1.20;;;20.20;37.70;;;;;;4847546;29;20568;-66
2021/12/07 14:34:00;;;;;;;4.28;1.40;;;20.20;37.60;;;;;;4848268;29;20049;-65
2021/12/07 14:36:27;;;;;;;4.38;1.60;;;20.20;37.60;;;;;;4847161;29;20090;-65
2021/12/07 14:38:56;;;;;;;4.15;1.50;;;20.20;37.60;;;;;;4850051;29;20498;-65
2021/12/07 14:41:25;;;;;;;5.07;1.60;;;20.20;37.50;;;;;;4844432;29;20033;-66
2021/12/07 14:43:53;;;;;;;2.85;1.08;;;20.20;37.50;;;;;;4850532;29;20066;-66
2021/12/07 14:46:21;;;;;;;4.20;1.40;;;20.20;37.50;;;;;;4844735;29;20022;-65
2021/12/07 14:48:49;;;;;;;3.80;1.10;;;20.20;37.50;;;;;;4848371;29;20390;-66
2021/12/07 14:51:24;;;;;;;3.10;1.30;;;20.20;37.40;;;;;;4845690;29;20475;-66
2021/12/07 14:53:58;;;;;;;4.78;1.30;;;20.20;37.30;;;;;;4853201;29;20032;-66
2021/12/07 14:56:26;;;;;;;5.55;1.70;;;20.20;37.30;;;;;;4846052;29;20026;-66